createdAt,value
2016-09-07T00:00:57.704Z,0
2016-09-07T00:01:57.695Z,0
2016-09-07T00:02:57.746Z,0
2016-09-07T00:03:57.435Z,0
2016-09-07T00:04:57.756Z,0
2016-09-07T00:05:57.471Z,0
2016-09-07T00:06:57.492Z,0
2016-09-07T00:07:57.660Z,0
2016-09-07T00:08:57.532Z,0
2016-09-07T00:09:57.556Z,0
2016-09-07T00:10:57.886Z,0
2016-09-07T00:11:58.006Z,0
2016-09-07T00:12:57.662Z,0
2016-09-07T00:13:58.005Z,0
2016-09-07T00:14:58.283Z,0
2016-09-07T00:15:58.108Z,0
2016-09-07T00:16:58.013Z,0
2016-09-07T00:17:58.026Z,0
2016-09-07T00:18:58.382Z,0
2016-09-07T00:19:58.021Z,0
2016-09-07T00:20:58.407Z,0
2016-09-07T00:21:57.496Z,0
2016-09-07T00:22:58.436Z,0
2016-09-07T00:23:58.242Z,0
2016-09-07T00:24:58.495Z,0
2016-09-07T00:25:58.201Z,0
2016-09-07T00:26:58.265Z,0
2016-09-07T00:27:58.714Z,0
2016-09-07T00:28:58.285Z,0
2016-09-07T00:29:58.293Z,0
2016-09-07T00:30:58.659Z,0
2016-09-07T00:31:58.025Z,0
2016-09-07T00:32:58.063Z,0
2016-09-07T00:33:58.076Z,0
2016-09-07T00:34:58.523Z,0
2016-09-07T00:35:58.122Z,0
2016-09-07T00:36:58.734Z,0
2016-09-07T00:37:58.475Z,0
2016-09-07T00:38:58.484Z,0
2016-09-07T00:39:58.516Z,0
2016-09-07T00:40:58.533Z,0
2016-09-07T00:41:58.235Z,0
2016-09-07T00:42:58.886Z,0
2016-09-07T00:43:58.902Z,0
2016-09-07T00:44:58.382Z,0
2016-09-07T00:45:58.324Z,0
2016-09-07T00:46:58.676Z,0
2016-09-07T00:47:58.366Z,0
2016-09-07T00:48:59.007Z,0
2016-09-07T00:49:58.726Z,0
2016-09-07T00:50:59.057Z,0
2016-09-07T00:51:58.443Z,0
2016-09-07T00:52:58.494Z,0
2016-09-07T00:53:58.801Z,0
2016-09-07T00:54:59.205Z,0
2016-09-07T00:55:59.270Z,0
2016-09-07T00:56:58.868Z,0
2016-09-07T00:57:58.906Z,0
2016-09-07T00:58:58.905Z,0
2016-09-07T00:59:58.344Z,0
2016-09-07T01:00:58.332Z,0
2016-09-07T01:01:58.703Z,0
2016-09-07T01:02:59.060Z,0
2016-09-07T01:03:59.446Z,0
2016-09-07T01:04:59.071Z,0
2016-09-07T01:05:59.380Z,0
2016-09-07T01:06:59.405Z,0
2016-09-07T01:07:59.188Z,0
2016-09-07T01:08:59.466Z,0
2016-09-07T01:09:59.163Z,0
2016-09-07T01:10:58.934Z,0
2016-09-07T01:11:58.876Z,0
2016-09-07T01:12:59.235Z,0
2016-09-07T01:13:59.524Z,0
2016-09-07T01:14:59.250Z,0
2016-09-07T01:15:58.988Z,0
2016-09-07T01:16:59.004Z,0
2016-09-07T01:17:59.726Z,0
2016-09-07T01:18:58.847Z,0
2016-09-07T01:19:59.696Z,0
2016-09-07T01:20:59.395Z,0
2016-09-07T01:21:59.406Z,0
2016-09-07T01:22:59.466Z,0
2016-09-07T01:23:59.434Z,0
2016-09-07T01:24:59.473Z,0
2016-09-07T01:25:59.235Z,0
2016-09-07T01:26:59.806Z,0
2016-09-07T01:27:59.654Z,0
2016-09-07T01:28:59.249Z,0
2016-09-07T01:29:59.258Z,0
2016-09-07T01:30:59.605Z,0
2016-09-07T01:31:59.314Z,0
2016-09-07T01:32:59.635Z,0
2016-09-07T01:33:59.677Z,0
2016-09-07T01:34:59.679Z,0
2016-09-07T01:35:59.086Z,0
2016-09-07T01:36:59.742Z,0
2016-09-07T01:37:59.751Z,0
2016-09-07T01:38:59.775Z,0
2016-09-07T01:39:59.477Z,0
2016-09-07T01:41:00.116Z,0
2016-09-07T01:41:59.906Z,0
2016-09-07T01:42:59.866Z,0
2016-09-07T01:43:59.884Z,0
2016-09-07T01:44:59.277Z,0
2016-09-07T01:45:59.294Z,0
2016-09-07T01:46:59.637Z,0
2016-09-07T01:48:00.276Z,0
2016-09-07T01:48:59.356Z,0
2016-09-07T01:49:59.680Z,0
2016-09-07T01:50:59.708Z,0
2016-09-07T01:51:59.737Z,0
2016-09-07T01:53:00.068Z,0
2016-09-07T01:54:00.404Z,0
2016-09-07T01:55:00.116Z,0
2016-09-07T01:55:59.812Z,0
2016-09-07T01:57:00.158Z,0
2016-09-07T01:58:00.165Z,0
2016-09-07T01:59:00.497Z,0
2016-09-07T01:59:59.906Z,0
2016-09-07T02:00:59.925Z,0
2016-09-07T02:01:59.940Z,0
2016-09-07T02:02:59.960Z,0
2016-09-07T02:04:00.597Z,0
2016-09-07T02:05:00.318Z,0
2016-09-07T02:06:00.698Z,0
2016-09-07T02:07:00.667Z,0
2016-09-07T02:08:00.372Z,0
2016-09-07T02:09:00.714Z,0
2016-09-07T02:10:00.098Z,0
2016-09-07T02:11:00.756Z,0
2016-09-07T02:12:00.155Z,0
2016-09-07T02:13:00.786Z,0
2016-09-07T02:14:00.188Z,0
2016-09-07T02:15:00.513Z,0
2016-09-07T02:16:00.231Z,0
2016-09-07T02:17:00.997Z,0
2016-09-07T02:18:00.920Z,0
2016-09-07T02:19:00.286Z,0
2016-09-07T02:20:00.317Z,0
2016-09-07T02:21:00.655Z,0
2016-09-07T02:22:00.682Z,0
2016-09-07T02:23:01.024Z,0
2016-09-07T02:24:01.034Z,0
2016-09-07T02:25:00.728Z,0
2016-09-07T02:26:00.134Z,0
2016-09-07T02:27:01.086Z,0
2016-09-07T02:28:00.806Z,0
2016-09-07T02:29:01.255Z,0
2016-09-07T02:30:00.827Z,0
2016-09-07T02:31:01.247Z,0
2016-09-07T02:32:00.687Z,0
2016-09-07T02:33:00.907Z,0
2016-09-07T02:34:00.917Z,0
2016-09-07T02:35:01.046Z,0
2016-09-07T02:36:00.961Z,0
2016-09-07T02:37:01.328Z,0
2016-09-07T02:38:00.986Z,0
2016-09-07T02:39:00.768Z,0
2016-09-07T02:40:01.377Z,0
2016-09-07T02:41:01.216Z,0
2016-09-07T02:42:01.397Z,0
2016-09-07T02:43:00.808Z,0
2016-09-07T02:44:00.518Z,0
2016-09-07T02:45:01.478Z,0
2016-09-07T02:46:00.868Z,0
2016-09-07T02:47:01.184Z,0
2016-09-07T02:48:01.228Z,0
2016-09-07T02:49:01.219Z,0
2016-09-07T02:50:01.267Z,0
2016-09-07T02:51:01.288Z,0
2016-09-07T02:52:01.299Z,0
2016-09-07T02:53:01.068Z,0
2016-09-07T02:54:01.448Z,0
2016-09-07T02:55:01.058Z,0
2016-09-07T02:56:01.393Z,0
2016-09-07T02:57:01.406Z,0
2016-09-07T02:58:01.416Z,0
2016-09-07T02:59:01.758Z,0
2016-09-07T03:00:01.462Z,0
2016-09-07T03:01:01.183Z,0
2016-09-07T03:02:01.808Z,0
2016-09-07T03:03:01.859Z,0
2016-09-07T03:04:02.007Z,0
2016-09-07T03:05:01.606Z,0
2016-09-07T03:06:01.699Z,0
2016-09-07T03:07:01.607Z,0
2016-09-07T03:08:01.426Z,0
2016-09-07T03:09:01.712Z,0
2016-09-07T03:10:02.009Z,0
2016-09-07T03:11:01.128Z,0
2016-09-07T03:12:02.048Z,0
2016-09-07T03:13:02.099Z,0
2016-09-07T03:14:01.134Z,0
2016-09-07T03:15:02.088Z,0
2016-09-07T03:16:02.127Z,0
2016-09-07T03:17:01.507Z,0
2016-09-07T03:18:02.149Z,0
2016-09-07T03:19:01.848Z,0
2016-09-07T03:20:01.886Z,0
2016-09-07T03:21:01.915Z,0
2016-09-07T03:22:01.938Z,0
2016-09-07T03:23:02.233Z,0
2016-09-07T03:24:02.275Z,0
2016-09-07T03:25:02.286Z,0
2016-09-07T03:26:02.325Z,0
2016-09-07T03:27:02.016Z,0
2016-09-07T03:28:02.348Z,0
2016-09-07T03:29:02.077Z,0
2016-09-07T03:30:01.775Z,0
2016-09-07T03:31:01.920Z,0
2016-09-07T03:32:02.548Z,0
2016-09-07T03:33:02.545Z,0
2016-09-07T03:34:02.376Z,0
2016-09-07T03:35:02.495Z,0
2016-09-07T03:36:02.216Z,0
2016-09-07T03:37:02.219Z,0
2016-09-07T03:38:01.978Z,0
2016-09-07T03:39:02.584Z,0
2016-09-07T03:40:01.987Z,0
2016-09-07T03:41:02.433Z,0
2016-09-07T03:42:02.523Z,0
2016-09-07T03:43:02.534Z,0
2016-09-07T03:44:02.578Z,0
2016-09-07T03:45:02.557Z,0
2016-09-07T03:46:03.084Z,0
2016-09-07T03:47:03.146Z,0
2016-09-07T03:48:01.978Z,0
2016-09-07T03:49:02.635Z,0
2016-09-07T03:50:02.634Z,0
2016-09-07T03:51:02.418Z,0
2016-09-07T03:52:02.336Z,0
2016-09-07T03:53:03.115Z,0
2016-09-07T03:54:02.317Z,0
2016-09-07T03:55:02.670Z,0
2016-09-07T03:56:03.188Z,0
2016-09-07T03:57:02.634Z,0
2016-09-07T03:58:02.667Z,0
2016-09-07T03:59:03.140Z,0
2016-09-07T04:00:02.695Z,0
2016-09-07T04:01:02.727Z,0
2016-09-07T04:02:02.563Z,0
2016-09-07T04:03:03.185Z,0
2016-09-07T04:04:02.839Z,0
2016-09-07T04:05:03.265Z,0
2016-09-07T04:06:02.517Z,0
2016-09-07T04:07:02.847Z,0
2016-09-07T04:08:02.867Z,0
2016-09-07T04:09:03.236Z,0
2016-09-07T04:10:02.723Z,0
2016-09-07T04:11:02.633Z,0
2016-09-07T04:12:02.347Z,0
2016-09-07T04:13:03.187Z,0
2016-09-07T04:14:02.681Z,0
2016-09-07T04:15:03.268Z,0
2016-09-07T04:16:03.233Z,0
2016-09-07T04:17:02.426Z,0
2016-09-07T04:18:03.256Z,0
2016-09-07T04:19:02.771Z,0
2016-09-07T04:20:02.784Z,0
2016-09-07T04:21:03.347Z,0
2016-09-07T04:22:02.833Z,0
2016-09-07T04:23:03.503Z,0
2016-09-07T04:24:03.306Z,0
2016-09-07T04:25:03.572Z,0
2016-09-07T04:26:03.286Z,0
2016-09-07T04:27:03.060Z,0
2016-09-07T04:28:03.057Z,0
2016-09-07T04:29:03.608Z,0
2016-09-07T04:30:02.746Z,0
2016-09-07T04:31:03.093Z,0
2016-09-07T04:32:02.796Z,0
2016-09-07T04:33:03.471Z,5
2016-09-07T04:34:03.519Z,5
2016-09-07T04:35:03.405Z,5
2016-09-07T04:36:02.853Z,5
2016-09-07T04:37:03.376Z,5
2016-09-07T04:38:03.480Z,5
2016-09-07T04:39:03.382Z,5
2016-09-07T04:40:03.532Z,5
2016-09-07T04:41:03.395Z,5
2016-09-07T04:42:03.409Z,5
2016-09-07T04:43:03.426Z,10
2016-09-07T04:44:03.435Z,10
2016-09-07T04:45:03.605Z,10
2016-09-07T04:46:03.645Z,10
2016-09-07T04:47:03.425Z,10
2016-09-07T04:48:03.685Z,15
2016-09-07T04:49:03.684Z,15
2016-09-07T04:50:03.465Z,15
2016-09-07T04:51:03.736Z,20
2016-09-07T04:52:03.764Z,20
2016-09-07T04:53:04.097Z,20
2016-09-07T04:54:04.116Z,25
2016-09-07T04:55:03.515Z,25
2016-09-07T04:56:04.148Z,25
2016-09-07T04:57:03.531Z,30
2016-09-07T04:58:03.987Z,30
2016-09-07T04:59:03.585Z,35
2016-09-07T05:00:04.310Z,40
2016-09-07T05:01:03.624Z,40
2016-09-07T05:02:04.276Z,45
2016-09-07T05:03:03.996Z,50
2016-09-07T05:04:04.314Z,50
2016-09-07T05:05:03.705Z,55
2016-09-07T05:06:03.524Z,55
2016-09-07T05:07:04.087Z,60
2016-09-07T05:08:04.415Z,60
2016-09-07T05:09:04.107Z,65
2016-09-07T05:10:04.467Z,65
2016-09-07T05:11:04.386Z,70
2016-09-07T05:12:04.605Z,70
2016-09-07T05:13:04.347Z,70
2016-09-07T05:14:03.941Z,75
2016-09-07T05:15:04.224Z,80
2016-09-07T05:16:04.563Z,85
2016-09-07T05:17:03.965Z,85
2016-09-07T05:18:04.274Z,90
2016-09-07T05:19:04.315Z,90
2016-09-07T05:20:04.524Z,95
2016-09-07T05:21:04.038Z,100
2016-09-07T05:22:04.364Z,100
2016-09-07T05:23:04.507Z,105
2016-09-07T05:24:04.811Z,110
2016-09-07T05:25:04.116Z,115
2016-09-07T05:26:04.455Z,120
2016-09-07T05:27:04.213Z,120
2016-09-07T05:28:04.515Z,125
2016-09-07T05:29:04.192Z,130
2016-09-07T05:30:04.874Z,130
2016-09-07T05:31:04.554Z,135
2016-09-07T05:32:04.269Z,140
2016-09-07T05:33:04.286Z,140
2016-09-07T05:34:04.623Z,135
2016-09-07T05:35:04.363Z,135
2016-09-07T05:36:05.047Z,135
2016-09-07T05:37:04.685Z,135
2016-09-07T05:38:05.016Z,135
2016-09-07T05:39:04.414Z,140
2016-09-07T05:40:04.523Z,145
2016-09-07T05:41:04.453Z,155
2016-09-07T05:42:04.974Z,170
2016-09-07T05:43:05.098Z,180
2016-09-07T05:44:04.532Z,190
2016-09-07T05:45:04.851Z,205
2016-09-07T05:46:05.205Z,230
2016-09-07T05:47:04.942Z,340
2016-09-07T05:48:04.926Z,415
2016-09-07T05:49:04.950Z,480
2016-09-07T05:50:04.654Z,540
2016-09-07T05:51:05.302Z,400
2016-09-07T05:52:04.985Z,265
2016-09-07T05:53:05.035Z,245
2016-09-07T05:54:04.846Z,250
2016-09-07T05:55:04.774Z,265
2016-09-07T05:56:05.404Z,250
2016-09-07T05:57:04.784Z,255
2016-09-07T05:58:05.466Z,250
2016-09-07T05:59:05.486Z,240
2016-09-07T06:00:05.279Z,250
2016-09-07T06:01:05.596Z,275
2016-09-07T06:02:04.934Z,350
2016-09-07T06:03:04.964Z,425
2016-09-07T06:04:05.578Z,455
2016-09-07T06:05:05.584Z,490
2016-09-07T06:06:05.616Z,550
2016-09-07T06:07:05.643Z,585
2016-09-07T06:08:05.050Z,580
2016-09-07T06:09:05.081Z,555
2016-09-07T06:10:05.844Z,600
2016-09-07T06:11:05.495Z,575
2016-09-07T06:12:05.584Z,495
2016-09-07T06:13:05.489Z,515
2016-09-07T06:14:04.932Z,520
2016-09-07T06:15:05.203Z,485
2016-09-07T06:16:05.553Z,480
2016-09-07T06:17:05.895Z,520
2016-09-07T06:18:05.638Z,535
2016-09-07T06:19:05.932Z,555
2016-09-07T06:20:05.666Z,560
2016-09-07T06:21:05.983Z,520
2016-09-07T06:22:06.092Z,470
2016-09-07T06:23:06.216Z,450
2016-09-07T06:24:05.455Z,455
2016-09-07T06:25:06.096Z,495
2016-09-07T06:26:05.825Z,535
2016-09-07T06:27:06.145Z,510
2016-09-07T06:28:06.167Z,510
2016-09-07T06:29:05.557Z,490
2016-09-07T06:30:05.925Z,495
2016-09-07T06:31:05.925Z,570
2016-09-07T06:32:06.506Z,610
2016-09-07T06:33:05.063Z,635
2016-09-07T06:34:05.822Z,655
2016-09-07T06:35:06.553Z,655
2016-09-07T06:36:06.706Z,650
2016-09-07T06:37:06.545Z,690
2016-09-07T06:38:06.145Z,745
2016-09-07T06:39:06.167Z,755
2016-09-07T06:40:05.546Z,800
2016-09-07T06:41:05.888Z,850
2016-09-07T06:42:06.215Z,865
2016-09-07T06:43:06.254Z,860
2016-09-07T06:44:06.278Z,920
2016-09-07T06:45:06.305Z,930
2016-09-07T06:46:06.785Z,960
2016-09-07T06:47:06.364Z,950
2016-09-07T06:48:06.809Z,920
2016-09-07T06:49:06.092Z,910
2016-09-07T06:50:06.806Z,915
2016-09-07T06:51:06.350Z,935
2016-09-07T06:52:06.552Z,935
2016-09-07T06:53:06.854Z,925
2016-09-07T06:54:06.744Z,915
2016-09-07T06:55:06.286Z,900
2016-09-07T06:56:06.705Z,940
2016-09-07T06:57:06.393Z,965
2016-09-07T06:58:06.988Z,930
2016-09-07T06:59:06.705Z,905
2016-09-07T07:00:06.428Z,875
2016-09-07T07:01:07.073Z,885
2016-09-07T07:02:06.789Z,885
2016-09-07T07:03:06.965Z,920
2016-09-07T07:04:06.871Z,1005
2016-09-07T07:05:06.891Z,1010
2016-09-07T07:06:06.614Z,950
2016-09-07T07:07:07.040Z,985
2016-09-07T07:08:06.676Z,1025
2016-09-07T07:09:07.301Z,1000
2016-09-07T07:10:06.719Z,970
2016-09-07T07:11:07.066Z,915
2016-09-07T07:12:07.094Z,895
2016-09-07T07:13:07.545Z,885
2016-09-07T07:14:07.533Z,845
2016-09-07T07:15:07.174Z,890
2016-09-07T07:16:06.894Z,1035
2016-09-07T07:17:07.241Z,1085
2016-09-07T07:18:07.573Z,1085
2016-09-07T07:19:06.525Z,1055
2016-09-07T07:20:07.102Z,1060
2016-09-07T07:21:07.362Z,1015
2016-09-07T07:22:07.374Z,995
2016-09-07T07:23:07.799Z,1130
2016-09-07T07:24:07.146Z,985
2016-09-07T07:25:07.307Z,905
2016-09-07T07:26:07.193Z,845
2016-09-07T07:27:07.226Z,940
2016-09-07T07:28:07.905Z,845
2016-09-07T07:29:07.594Z,940
2016-09-07T07:30:07.957Z,860
2016-09-07T07:31:07.963Z,835
2016-09-07T07:32:07.952Z,785
2016-09-07T07:33:07.723Z,845
2016-09-07T07:34:08.077Z,915
2016-09-07T07:35:08.124Z,1060
2016-09-07T07:36:08.163Z,1155
2016-09-07T07:37:07.514Z,1255
2016-09-07T07:38:07.555Z,1260
2016-09-07T07:39:08.227Z,1020
2016-09-07T07:40:08.253Z,915
2016-09-07T07:41:08.272Z,495
2016-09-07T07:42:07.673Z,315
2016-09-07T07:43:08.003Z,305
2016-09-07T07:44:07.756Z,295
2016-09-07T07:45:07.768Z,295
2016-09-07T07:46:07.792Z,290
2016-09-07T07:47:07.861Z,290
2016-09-07T07:48:08.165Z,285
2016-09-07T07:49:08.521Z,285
2016-09-07T07:50:08.537Z,280
2016-09-07T07:51:08.554Z,280
2016-09-07T07:52:08.275Z,275
2016-09-07T07:53:08.617Z,280
2016-09-07T07:54:08.330Z,275
2016-09-07T07:55:08.755Z,275
2016-09-07T07:56:08.715Z,275
2016-09-07T07:57:08.803Z,275
2016-09-07T07:58:08.455Z,280
2016-09-07T07:59:08.795Z,275
2016-09-07T08:00:08.494Z,275
2016-09-07T08:01:08.846Z,275
2016-09-07T08:02:08.882Z,275
2016-09-07T08:03:09.034Z,270
2016-09-07T08:04:08.974Z,270
2016-09-07T08:05:08.973Z,270
2016-09-07T08:06:08.666Z,270
2016-09-07T08:07:08.696Z,270
2016-09-07T08:08:08.502Z,270
2016-09-07T08:09:08.814Z,270
2016-09-07T08:10:08.466Z,270
2016-09-07T08:11:09.103Z,270
2016-09-07T08:12:09.139Z,265
2016-09-07T08:13:09.279Z,265
2016-09-07T08:14:08.958Z,265
2016-09-07T08:15:09.026Z,265
2016-09-07T08:16:09.244Z,265
2016-09-07T08:17:09.301Z,265
2016-09-07T08:18:09.314Z,265
2016-09-07T08:19:09.015Z,260
2016-09-07T08:20:09.350Z,260
2016-09-07T08:21:09.384Z,260
2016-09-07T08:22:09.435Z,260
2016-09-07T08:23:09.843Z,255
2016-09-07T08:24:09.067Z,255
2016-09-07T08:25:09.826Z,255
2016-09-07T08:26:09.351Z,255
2016-09-07T08:27:09.794Z,250
2016-09-07T08:28:09.673Z,250
2016-09-07T08:29:09.849Z,250
2016-09-07T08:30:09.695Z,250
2016-09-07T08:31:09.813Z,245
2016-09-07T08:32:09.358Z,245
2016-09-07T08:33:09.430Z,245
2016-09-07T08:34:09.362Z,245
2016-09-07T08:35:09.423Z,245
2016-09-07T08:36:09.831Z,240
2016-09-07T08:37:09.861Z,240
2016-09-07T08:38:09.554Z,240
2016-09-07T08:39:09.544Z,240
2016-09-07T08:40:09.892Z,240
2016-09-07T08:41:09.913Z,235
2016-09-07T08:42:09.934Z,235
2016-09-07T08:43:09.962Z,235
2016-09-07T08:44:09.376Z,235
2016-09-07T08:45:10.037Z,235
2016-09-07T08:46:09.957Z,235
2016-09-07T08:47:09.852Z,235
2016-09-07T08:48:10.192Z,235
2016-09-07T08:49:09.918Z,235
2016-09-07T08:50:09.937Z,235
2016-09-07T08:51:10.170Z,235
2016-09-07T08:52:09.593Z,235
2016-09-07T08:53:10.222Z,235
2016-09-07T08:54:09.927Z,235
2016-09-07T08:55:10.282Z,235
2016-09-07T08:56:09.998Z,235
2016-09-07T08:57:10.013Z,230
2016-09-07T08:58:10.403Z,230
2016-09-07T08:59:10.075Z,230
2016-09-07T09:00:10.464Z,230
2016-09-07T09:01:10.151Z,225
2016-09-07T09:02:10.146Z,225
2016-09-07T09:03:10.163Z,225
2016-09-07T09:04:10.194Z,225
2016-09-07T09:05:10.553Z,225
2016-09-07T09:06:10.291Z,225
2016-09-07T09:07:10.354Z,225
2016-09-07T09:08:10.326Z,225
2016-09-07T09:09:10.669Z,220
2016-09-07T09:10:10.794Z,220
2016-09-07T09:11:10.715Z,220
2016-09-07T09:12:10.475Z,220
2016-09-07T09:13:10.775Z,220
2016-09-07T09:14:10.786Z,220
2016-09-07T09:15:10.793Z,220
2016-09-07T09:16:10.831Z,220
2016-09-07T09:17:10.576Z,220
2016-09-07T09:18:10.994Z,220
2016-09-07T09:19:10.941Z,220
2016-09-07T09:20:10.333Z,220
2016-09-07T09:21:10.953Z,220
2016-09-07T09:22:10.776Z,220
2016-09-07T09:23:11.155Z,220
2016-09-07T09:24:10.739Z,215
2016-09-07T09:25:10.785Z,215
2016-09-07T09:26:11.076Z,215
2016-09-07T09:27:10.832Z,215
2016-09-07T09:28:10.841Z,215
2016-09-07T09:29:10.869Z,215
2016-09-07T09:30:11.203Z,215
2016-09-07T09:31:10.924Z,210
2016-09-07T09:32:10.935Z,210
2016-09-07T09:33:11.272Z,210
2016-09-07T09:34:11.316Z,210
2016-09-07T09:35:11.347Z,210
2016-09-07T09:36:11.355Z,210
2016-09-07T09:37:11.392Z,210
2016-09-07T09:38:11.422Z,210
2016-09-07T09:39:11.544Z,210
2016-09-07T09:40:10.897Z,210
2016-09-07T09:41:11.485Z,210
2016-09-07T09:42:11.010Z,210
2016-09-07T09:43:11.544Z,210
2016-09-07T09:44:11.054Z,215
2016-09-07T09:45:11.281Z,210
2016-09-07T09:46:11.305Z,210
2016-09-07T09:47:11.653Z,210
2016-09-07T09:48:11.046Z,210
2016-09-07T09:49:11.092Z,210
2016-09-07T09:50:11.731Z,210
2016-09-07T09:51:11.800Z,210
2016-09-07T09:52:11.833Z,205
2016-09-07T09:53:11.554Z,205
2016-09-07T09:54:11.214Z,205
2016-09-07T09:55:11.852Z,205
2016-09-07T09:56:11.913Z,205
2016-09-07T09:57:11.376Z,210
2016-09-07T09:58:11.954Z,210
2016-09-07T09:59:11.675Z,210
2016-09-07T10:00:11.721Z,210
2016-09-07T10:01:12.032Z,210
2016-09-07T10:02:11.786Z,210
2016-09-07T10:03:12.176Z,210
2016-09-07T10:04:11.804Z,210
2016-09-07T10:05:11.825Z,205
2016-09-07T10:06:12.152Z,210
2016-09-07T10:07:12.194Z,210
2016-09-07T10:08:12.213Z,210
2016-09-07T10:09:12.266Z,210
2016-09-07T10:10:11.963Z,215
2016-09-07T10:11:12.092Z,210
2016-09-07T10:12:11.699Z,210
2016-09-07T10:13:12.421Z,210
2016-09-07T10:14:11.768Z,210
2016-09-07T10:15:12.080Z,210
2016-09-07T10:16:12.441Z,210
2016-09-07T10:17:12.473Z,210
2016-09-07T10:18:12.492Z,215
2016-09-07T10:19:11.861Z,215
2016-09-07T10:20:12.410Z,215
2016-09-07T10:21:12.474Z,215
2016-09-07T10:22:11.724Z,215
2016-09-07T10:23:12.815Z,215
2016-09-07T10:24:11.851Z,210
2016-09-07T10:25:12.068Z,210
2016-09-07T10:26:12.811Z,210
2016-09-07T10:27:12.783Z,210
2016-09-07T10:28:12.196Z,210
2016-09-07T10:29:11.852Z,210
2016-09-07T10:30:11.888Z,205
2016-09-07T10:31:12.605Z,205
2016-09-07T10:32:12.240Z,205
2016-09-07T10:33:12.591Z,205
2016-09-07T10:34:12.541Z,200
2016-09-07T10:35:12.223Z,200
2016-09-07T10:36:12.671Z,200
2016-09-07T10:37:12.246Z,200
2016-09-07T10:38:12.551Z,200
2016-09-07T10:39:12.845Z,200
2016-09-07T10:40:12.487Z,195
2016-09-07T10:41:13.147Z,195
2016-09-07T10:42:13.127Z,195
2016-09-07T10:43:12.862Z,195
2016-09-07T10:44:12.571Z,195
2016-09-07T10:45:12.968Z,195
2016-09-07T10:46:12.933Z,195
2016-09-07T10:47:12.643Z,195
2016-09-07T10:48:12.743Z,195
2016-09-07T10:49:13.332Z,195
2016-09-07T10:50:13.342Z,195
2016-09-07T10:51:12.765Z,195
2016-09-07T10:52:13.103Z,195
2016-09-07T10:53:13.533Z,190
2016-09-07T10:54:13.237Z,190
2016-09-07T10:55:13.516Z,190
2016-09-07T10:56:13.566Z,190
2016-09-07T10:57:13.636Z,190
2016-09-07T10:58:13.264Z,190
2016-09-07T10:59:13.032Z,190
2016-09-07T11:00:13.762Z,190
2016-09-07T11:01:13.063Z,190
2016-09-07T11:02:13.721Z,190
2016-09-07T11:03:13.566Z,190
2016-09-07T11:04:13.499Z,190
2016-09-07T11:05:13.794Z,190
2016-09-07T11:06:13.172Z,190
2016-09-07T11:07:13.512Z,185
2016-09-07T11:08:13.544Z,185
2016-09-07T11:09:13.304Z,185
2016-09-07T11:10:13.913Z,185
2016-09-07T11:11:13.969Z,185
2016-09-07T11:12:13.752Z,185
2016-09-07T11:13:13.680Z,185
2016-09-07T11:14:13.831Z,190
2016-09-07T11:15:13.761Z,190
2016-09-07T11:16:14.137Z,190
2016-09-07T11:17:14.098Z,185
2016-09-07T11:18:14.149Z,185
2016-09-07T11:19:14.151Z,185
2016-09-07T11:20:13.852Z,185
2016-09-07T11:21:13.902Z,185
2016-09-07T11:22:13.928Z,190
2016-09-07T11:23:13.334Z,190
2016-09-07T11:24:13.978Z,190
2016-09-07T11:25:13.673Z,190
2016-09-07T11:26:14.554Z,190
2016-09-07T11:27:13.750Z,190
2016-09-07T11:28:14.082Z,190
2016-09-07T11:29:14.132Z,185
2016-09-07T11:30:14.463Z,185
2016-09-07T11:31:14.495Z,185
2016-09-07T11:32:14.212Z,185
2016-09-07T11:33:14.532Z,185
2016-09-07T11:34:14.571Z,185
2016-09-07T11:35:14.767Z,185
2016-09-07T11:36:14.296Z,185
2016-09-07T11:37:14.415Z,185
2016-09-07T11:38:14.735Z,185
2016-09-07T11:39:14.714Z,185
2016-09-07T11:40:14.726Z,185
2016-09-07T11:41:14.495Z,185
2016-09-07T11:42:14.267Z,185
2016-09-07T11:43:14.811Z,185
2016-09-07T11:44:14.824Z,185
2016-09-07T11:45:14.882Z,185
2016-09-07T11:46:15.019Z,185
2016-09-07T11:47:14.616Z,185
2016-09-07T11:48:14.650Z,185
2016-09-07T11:49:14.975Z,185
2016-09-07T11:50:14.697Z,185
2016-09-07T11:51:14.756Z,185
2016-09-07T11:52:15.085Z,185
2016-09-07T11:53:15.098Z,185
2016-09-07T11:54:15.119Z,185
2016-09-07T11:55:15.147Z,185
2016-09-07T11:56:15.166Z,185
2016-09-07T11:57:14.417Z,180
2016-09-07T11:58:14.907Z,180
2016-09-07T11:59:14.648Z,180
2016-09-07T12:00:14.657Z,180
2016-09-07T12:01:15.327Z,185
2016-09-07T12:02:15.351Z,180
2016-09-07T12:03:15.045Z,180
2016-09-07T12:04:15.419Z,180
2016-09-07T12:05:15.155Z,180
2016-09-07T12:06:15.444Z,180
2016-09-07T12:07:15.270Z,180
2016-09-07T12:08:15.604Z,180
2016-09-07T12:09:15.584Z,180
2016-09-07T12:10:15.604Z,180
2016-09-07T12:11:15.343Z,180
2016-09-07T12:12:14.678Z,180
2016-09-07T12:13:16.086Z,180
2016-09-07T12:14:16.076Z,180
2016-09-07T12:15:16.243Z,180
2016-09-07T12:16:16.079Z,180
2016-09-07T12:17:16.108Z,180
2016-09-07T12:18:16.085Z,180
2016-09-07T12:19:16.097Z,180
2016-09-07T12:20:15.738Z,180
2016-09-07T12:21:16.120Z,180
2016-09-07T12:22:16.335Z,180
2016-09-07T12:23:15.757Z,180
2016-09-07T12:24:15.729Z,180
2016-09-07T12:25:15.646Z,180
2016-09-07T12:26:15.680Z,180
2016-09-07T12:27:16.133Z,180
2016-09-07T12:28:16.348Z,180
2016-09-07T12:29:15.785Z,180
2016-09-07T12:30:16.238Z,180
2016-09-07T12:31:16.139Z,180
2016-09-07T12:32:15.855Z,180
2016-09-07T12:33:15.894Z,180
2016-09-07T12:34:15.599Z,180
2016-09-07T12:35:16.274Z,180
2016-09-07T12:36:16.299Z,180
2016-09-07T12:37:16.183Z,180
2016-09-07T12:38:16.197Z,180
2016-09-07T12:39:16.497Z,180
2016-09-07T12:40:16.438Z,180
2016-09-07T12:41:16.227Z,180
2016-09-07T12:42:16.500Z,180
2016-09-07T12:43:16.472Z,180
2016-09-07T12:44:15.978Z,175
2016-09-07T12:45:16.557Z,175
2016-09-07T12:46:16.387Z,175
2016-09-07T12:47:16.593Z,175
2016-09-07T12:48:16.768Z,175
2016-09-07T12:49:16.427Z,175
2016-09-07T12:50:16.677Z,180
2016-09-07T12:51:16.693Z,180
2016-09-07T12:52:16.775Z,180
2016-09-07T12:53:16.767Z,180
2016-09-07T12:54:16.497Z,180
2016-09-07T12:55:16.828Z,180
2016-09-07T12:56:16.837Z,175
2016-09-07T12:57:16.890Z,180
2016-09-07T12:58:16.581Z,175
2016-09-07T12:59:16.605Z,175
2016-09-07T13:00:16.948Z,175
2016-09-07T13:01:17.017Z,175
2016-09-07T13:02:16.536Z,175
2016-09-07T13:03:17.057Z,175
2016-09-07T13:04:16.868Z,175
2016-09-07T13:05:17.097Z,175
2016-09-07T13:06:16.858Z,175
2016-09-07T13:07:17.278Z,175
2016-09-07T13:08:17.205Z,175
2016-09-07T13:09:17.229Z,175
2016-09-07T13:10:16.935Z,180
2016-09-07T13:11:16.660Z,180
2016-09-07T13:12:17.289Z,175
2016-09-07T13:13:17.381Z,175
2016-09-07T13:14:16.724Z,175
2016-09-07T13:15:16.739Z,175
2016-09-07T13:16:17.388Z,175
2016-09-07T13:17:17.425Z,175
2016-09-07T13:18:17.563Z,180
2016-09-07T13:19:17.569Z,170
2016-09-07T13:20:17.539Z,165
2016-09-07T13:21:17.579Z,170
2016-09-07T13:22:17.556Z,175
2016-09-07T13:23:17.618Z,170
2016-09-07T13:24:17.618Z,175
2016-09-07T13:25:17.047Z,175
2016-09-07T13:26:17.686Z,175
2016-09-07T13:27:17.696Z,175
2016-09-07T13:28:17.473Z,180
2016-09-07T13:29:17.798Z,180
2016-09-07T13:30:17.906Z,180
2016-09-07T13:31:17.879Z,180
2016-09-07T13:32:17.827Z,180
2016-09-07T13:33:17.575Z,180
2016-09-07T13:34:17.273Z,180
2016-09-07T13:35:17.689Z,180
2016-09-07T13:36:17.947Z,180
2016-09-07T13:37:17.678Z,180
2016-09-07T13:38:17.714Z,180
2016-09-07T13:39:18.038Z,180
2016-09-07T13:40:18.080Z,180
2016-09-07T13:41:18.135Z,180
2016-09-07T13:42:18.128Z,175
2016-09-07T13:43:18.565Z,175
2016-09-07T13:44:17.878Z,175
2016-09-07T13:45:17.577Z,175
2016-09-07T13:46:17.615Z,170
2016-09-07T13:47:18.266Z,170
2016-09-07T13:48:17.980Z,175
2016-09-07T13:49:18.321Z,170
2016-09-07T13:50:18.069Z,175
2016-09-07T13:51:18.085Z,175
2016-09-07T13:52:17.817Z,175
2016-09-07T13:53:18.428Z,175
2016-09-07T13:54:18.466Z,170
2016-09-07T13:55:18.107Z,175
2016-09-07T13:56:18.566Z,175
2016-09-07T13:57:18.572Z,175
2016-09-07T13:58:18.602Z,170
2016-09-07T13:59:18.311Z,170
2016-09-07T14:00:18.741Z,170
2016-09-07T14:01:18.686Z,170
2016-09-07T14:02:18.707Z,170
2016-09-07T14:03:18.806Z,170
2016-09-07T14:04:18.129Z,170
2016-09-07T14:05:18.794Z,170
2016-09-07T14:06:18.527Z,175
2016-09-07T14:07:18.814Z,175